Etusivu
METAR-TAF:

METAR-TAF

Lentoasemat :

Førde, Norja

Leveyspiiri: 61-27N, Pituuspiiri: 005-52E, korkeus merenpinnasta: 150 m

Tämänhetkinen sää

Tämä raportti tehtiin 37 minuuttia sitten, kello 14.50 UTC
Tuuli 7 kn lännestä/lounaasta
Lämpötila 10°C
Kosteus 66%
Ilmanpaine 1010 hPa
Näkyvyys 10 km tai enemmän
Muutamia pilviä 2800 ft:n korkeudessa
Hajanaisia pilviä 3300 ft:n korkeudessa
Hajonneita pilviä 16000 ft:n korkeudessa

METAR: ENBL 201450Z 25007KT 9999 FEW028 SCT033 BKN160 10/04 Q1010

Aika: 17:27 (15:27 UTC)


TAF: puuttuu

Säähavainnot ja -ennusteet yli 4000 lentoasemalta (METAR- ja TAF-raportit).

Käytössä olevat sääasemat on merkitty karttaan keltaisilla ja punaisilla pisteillä.

Aseta hiiri pisteen päälle nähdäksesi sääaseman nimen.

Klikkaa sitten nähdäksesi säähavainnot ja -ennusteet.

Kartan vaihtaminen: klikkaa mustalla rastilla varustettuja vihreitä pisteitä, niin voit zoomata sisään; viivalla varustettua vihreää pistettä, niin voit zoomata ulos tai vihreitä nuolia, niin pääset viereisille kartoille.


METAR-TAF: